createdAt,value
2022-11-14T00:04:29.252Z,9.00
2022-11-14T00:09:52.343Z,8.90
2022-11-14T00:15:15.226Z,8.90
2022-11-14T00:20:37.101Z,8.80
2022-11-14T00:25:59.929Z,8.90
2022-11-14T00:31:21.652Z,8.80
2022-11-14T00:36:43.412Z,9.00
2022-11-14T00:42:06.590Z,8.80
2022-11-14T00:47:27.940Z,8.80
2022-11-14T00:52:49.521Z,8.70
2022-11-14T00:58:12.643Z,8.70
2022-11-14T01:03:34.081Z,8.70
2022-11-14T01:08:55.781Z,8.80
2022-11-14T01:14:18.757Z,8.80
2022-11-14T01:19:40.251Z,8.50
2022-11-14T01:25:02.064Z,8.60
2022-11-14T01:30:24.993Z,8.50
2022-11-14T01:35:46.347Z,8.50
2022-11-14T01:41:08.284Z,8.50
2022-11-14T01:46:34.680Z,8.50
2022-11-14T01:52:03.706Z,8.40
2022-11-14T01:57:30.154Z,8.50
2022-11-14T02:02:53.648Z,8.40
2022-11-14T02:08:17.575Z,8.40
2022-11-14T02:13:39.617Z,8.00
2022-11-14T02:19:02.502Z,8.30
2022-11-14T02:24:25.546Z,8.40
2022-11-14T02:29:46.944Z,8.40
2022-11-14T02:35:09.457Z,8.50
2022-11-14T02:40:32.419Z,8.40
2022-11-14T02:45:54.132Z,8.30
2022-11-14T02:51:15.707Z,8.30
2022-11-14T02:56:38.733Z,8.40
2022-11-14T03:02:00.237Z,8.60
2022-11-14T03:07:21.961Z,8.50
2022-11-14T03:12:44.649Z,8.60
2022-11-14T03:18:06.256Z,8.60
2022-11-14T03:23:27.920Z,8.50
2022-11-14T03:28:51.065Z,8.50
2022-11-14T03:34:12.585Z,8.60
2022-11-14T03:39:33.896Z,8.70
2022-11-14T03:44:56.708Z,8.60
2022-11-14T03:50:18.814Z,8.50
2022-11-14T03:55:40.242Z,8.50
2022-11-14T04:01:03.840Z,8.60
2022-11-14T04:06:25.348Z,8.60
2022-11-14T04:11:46.724Z,8.60
2022-11-14T04:17:09.585Z,8.40
2022-11-14T04:22:31.062Z,8.60
2022-11-14T04:27:52.699Z,8.70
2022-11-14T04:33:15.801Z,8.80
2022-11-14T04:38:39.266Z,8.80
2022-11-14T04:44:00.512Z,8.80
2022-11-14T04:49:23.469Z,8.90
2022-11-14T04:54:45.292Z,8.50
2022-11-14T05:00:08.461Z,8.50
2022-11-14T05:05:32.437Z,8.80
2022-11-14T05:10:53.976Z,8.40
2022-11-14T05:16:15.651Z,8.40
2022-11-14T05:21:38.722Z,8.50
2022-11-14T05:27:00.243Z,8.50
2022-11-14T05:32:22.488Z,8.50
2022-11-14T05:37:45.044Z,8.50
2022-11-14T05:43:06.979Z,8.50
2022-11-14T05:48:28.614Z,8.60
2022-11-14T05:53:51.749Z,8.70
2022-11-14T05:59:13.106Z,8.80
2022-11-14T06:04:34.624Z,8.60
2022-11-14T06:09:57.523Z,8.50
2022-11-14T06:15:19.394Z,8.60
2022-11-14T06:20:41.081Z,8.60
2022-11-14T06:26:05.958Z,8.50
2022-11-14T06:31:28.284Z,8.40
2022-11-14T06:36:49.636Z,8.40
2022-11-14T06:42:12.542Z,8.50
2022-11-14T06:47:34.172Z,8.50
2022-11-14T06:52:57.865Z,8.40
2022-11-14T06:58:20.764Z,8.50
2022-11-14T07:03:43.366Z,8.40
2022-11-14T07:09:05.426Z,8.40
2022-11-14T07:14:28.999Z,8.50
2022-11-14T07:19:50.338Z,8.50
2022-11-14T07:25:11.912Z,8.70
2022-11-14T07:30:35.492Z,8.70
2022-11-14T07:35:57.008Z,8.60
2022-11-14T07:41:18.636Z,8.70
2022-11-14T07:46:41.469Z,8.70
2022-11-14T07:52:03.236Z,8.80
2022-11-14T07:57:24.931Z,8.80
2022-11-14T08:02:48.618Z,8.80
2022-11-14T08:08:10.221Z,8.70
2022-11-14T08:13:33.716Z,8.70
2022-11-14T08:18:56.580Z,8.80
2022-11-14T08:24:18.144Z,8.60
2022-11-14T08:29:39.715Z,8.60
2022-11-14T08:35:02.601Z,8.80
2022-11-14T08:40:24.203Z,8.90
2022-11-14T08:45:45.573Z,8.80
2022-11-14T08:51:08.775Z,8.90
2022-11-14T08:56:30.554Z,8.90
2022-11-14T09:01:52.140Z,9.00
2022-11-14T09:07:15.288Z,9.00
2022-11-14T09:12:36.685Z,8.90
2022-11-14T09:17:58.974Z,9.00
2022-11-14T09:23:21.575Z,9.10
2022-11-14T09:28:43.048Z,9.10
2022-11-14T09:34:04.753Z,9.30
2022-11-14T09:39:27.684Z,9.20
2022-11-14T09:44:56.569Z,9.30
2022-11-14T09:50:25.639Z,9.30
2022-11-14T09:55:48.775Z,9.30
2022-11-14T10:01:19.882Z,9.30
2022-11-14T10:06:47.751Z,9.30
2022-11-14T10:12:19.072Z,9.30
2022-11-14T10:18:04.166Z,9.40
2022-11-14T10:23:34.221Z,9.30
2022-11-14T10:29:09.309Z,9.30
2022-11-14T10:34:34.754Z,9.30
2022-11-14T10:40:00.831Z,9.20
2022-11-14T10:45:27.830Z,9.30
2022-11-14T10:50:55.591Z,9.50
2022-11-14T10:56:17.757Z,9.60
2022-11-14T11:01:43.184Z,9.70
2022-11-14T11:07:39.244Z,9.70
2022-11-14T11:13:01.139Z,9.70
2022-11-14T11:18:30.353Z,9.80
2022-11-14T11:23:54.016Z,9.80
2022-11-14T11:29:19.086Z,9.90
2022-11-14T11:34:42.030Z,9.90
2022-11-14T11:40:07.660Z,10.10
2022-11-14T11:45:30.253Z,10.00
2022-11-14T11:50:52.929Z,10.40
2022-11-14T11:56:18.533Z,10.40
2022-11-14T12:01:40.318Z,10.50
2022-11-14T12:07:09.482Z,10.60
2022-11-14T12:12:46.350Z,10.60
2022-11-14T12:18:24.922Z,10.50
2022-11-14T12:24:26.959Z,10.60
2022-11-14T12:30:05.068Z,10.70
2022-11-14T12:35:29.440Z,10.70
2022-11-14T12:40:55.251Z,10.80
2022-11-14T12:46:17.026Z,11.00
2022-11-14T12:51:52.259Z,11.10
2022-11-14T12:57:45.934Z,11.80
2022-11-14T13:03:24.416Z,12.20
2022-11-14T13:09:18.810Z,12.60
2022-11-14T13:15:09.681Z,12.80
2022-11-14T13:20:51.100Z,12.80
2022-11-14T13:26:40.532Z,13.00
2022-11-14T13:32:03.661Z,13.10
2022-11-14T13:37:43.857Z,13.30
2022-11-14T13:43:15.375Z,13.30
2022-11-14T13:49:04.712Z,13.30
2022-11-14T13:54:26.457Z,13.50
2022-11-14T13:59:59.936Z,13.60
2022-11-14T14:05:35.315Z,13.70
2022-11-14T14:11:13.427Z,13.70
2022-11-14T14:16:41.386Z,13.80
2022-11-14T14:22:12.529Z,13.90
2022-11-14T14:27:41.756Z,13.90
2022-11-14T14:33:10.165Z,14.10
2022-11-14T14:38:33.244Z,14.10
2022-11-14T14:43:56.833Z,14.20
2022-11-14T14:49:23.009Z,14.30
2022-11-14T14:54:55.839Z,14.20
2022-11-14T15:00:21.729Z,14.20
2022-11-14T15:05:43.542Z,14.10
2022-11-14T15:11:07.844Z,14.10
2022-11-14T15:16:30.945Z,14.10
2022-11-14T15:22:04.182Z,14.20
2022-11-14T15:27:27.153Z,14.20
2022-11-14T15:32:51.130Z,14.20
2022-11-14T15:38:43.164Z,14.20
2022-11-14T15:44:05.496Z,14.10
2022-11-14T15:49:28.180Z,14.10
2022-11-14T15:54:49.560Z,14.20
2022-11-14T16:00:15.816Z,14.20
2022-11-14T16:05:37.247Z,14.30
2022-11-14T16:10:58.907Z,14.30
2022-11-14T16:16:22.262Z,14.40
2022-11-14T16:21:44.585Z,14.40
2022-11-14T16:27:06.467Z,14.50
2022-11-14T16:32:29.371Z,14.60
2022-11-14T16:37:51.330Z,14.60
2022-11-14T16:43:15.426Z,14.70
2022-11-14T16:48:38.218Z,14.50
2022-11-14T16:53:59.655Z,14.40
2022-11-14T16:59:21.284Z,14.40
2022-11-14T17:04:47.401Z,14.30
2022-11-14T17:10:10.258Z,14.30
2022-11-14T17:15:33.009Z,14.30
2022-11-14T17:20:56.234Z,14.40
2022-11-14T17:26:19.029Z,14.40
2022-11-14T17:31:46.691Z,14.50
2022-11-14T17:37:10.175Z,14.50
2022-11-14T17:42:31.961Z,14.60
2022-11-14T17:47:53.752Z,14.70
2022-11-14T17:53:16.577Z,14.70
2022-11-14T17:58:38.328Z,14.80
2022-11-14T18:04:04.680Z,14.90
2022-11-14T18:09:29.506Z,14.90
2022-11-14T18:14:51.323Z,14.90
2022-11-14T18:20:12.953Z,15.00
2022-11-14T18:25:35.914Z,15.00
2022-11-14T18:30:57.896Z,15.00
2022-11-14T18:36:22.400Z,15.10
2022-11-14T18:41:45.401Z,15.10
2022-11-14T18:47:06.892Z,15.20
2022-11-14T18:58:06.339Z,15.30
2022-11-14T19:03:34.028Z,15.30
2022-11-14T19:08:57.522Z,15.40
2022-11-14T19:14:21.980Z,15.40
2022-11-14T19:19:53.553Z,15.40
2022-11-14T19:25:18.513Z,15.40
2022-11-14T19:30:41.199Z,15.40
2022-11-14T19:36:07.327Z,15.50
2022-11-14T19:41:30.645Z,15.50
2022-11-14T19:47:00.809Z,15.50
2022-11-14T19:52:22.456Z,15.60
2022-11-14T19:57:44.143Z,15.70
2022-11-14T20:03:07.103Z,15.70
2022-11-14T20:08:29.059Z,15.70
2022-11-14T20:13:50.866Z,15.80
2022-11-14T20:19:16.095Z,15.70
2022-11-14T20:24:37.726Z,15.80
2022-11-14T20:29:59.438Z,15.80
2022-11-14T20:35:22.531Z,15.80
2022-11-14T20:40:43.838Z,15.80
2022-11-14T20:46:08.717Z,15.70
2022-11-14T20:51:32.073Z,15.70
2022-11-14T20:56:53.732Z,15.70
2022-11-14T21:02:15.868Z,15.80
2022-11-14T21:07:39.051Z,15.60
2022-11-14T21:13:20.432Z,15.60
2022-11-14T21:18:47.588Z,15.70
2022-11-14T21:24:11.285Z,15.70
2022-11-14T21:29:32.823Z,15.70
2022-11-14T21:34:54.438Z,15.80
2022-11-14T21:40:17.713Z,15.80
2022-11-14T21:45:39.114Z,15.80
2022-11-14T21:51:05.462Z,15.90
2022-11-14T21:56:29.574Z,15.90
2022-11-14T22:02:10.179Z,16.00
2022-11-14T22:07:31.712Z,16.00
2022-11-14T22:12:54.635Z,16.00
2022-11-14T22:18:16.526Z,15.90
2022-11-14T22:23:38.052Z,15.90
2022-11-14T22:29:01.534Z,15.90
2022-11-14T22:34:23.045Z,15.80
2022-11-14T22:39:44.679Z,15.90
2022-11-14T22:45:09.334Z,15.90
2022-11-14T22:50:30.686Z,15.80
2022-11-14T22:55:52.186Z,15.80
2022-11-14T23:01:20.387Z,15.70
2022-11-14T23:06:42.069Z,15.70
2022-11-14T23:12:03.716Z,15.70
2022-11-14T23:17:26.749Z,15.70
2022-11-14T23:22:48.396Z,15.70
2022-11-14T23:28:09.702Z,15.80
2022-11-14T23:33:33.517Z,15.80
2022-11-14T23:38:55.477Z,15.80
2022-11-14T23:44:16.988Z,15.80
2022-11-14T23:49:40.030Z,15.90
2022-11-14T23:55:02.624Z,15.80
